createdAt,value
2016-07-09T00:00:22.333Z,0
2016-07-09T00:01:21.725Z,0
2016-07-09T00:02:21.727Z,0
2016-07-09T00:03:21.724Z,0
2016-07-09T00:04:21.717Z,0
2016-07-09T00:05:21.720Z,0
2016-07-09T00:06:21.707Z,0
2016-07-09T00:07:21.718Z,0
2016-07-09T00:08:21.711Z,0
2016-07-09T00:09:21.712Z,0
2016-07-09T00:10:21.711Z,0
2016-07-09T00:11:21.710Z,0
2016-07-09T00:12:21.701Z,0
2016-07-09T00:13:21.694Z,0
2016-07-09T00:15:24.419Z,0
2016-07-09T00:16:23.164Z,0
2016-07-09T00:17:22.017Z,0
2016-07-09T00:18:22.623Z,0
2016-07-09T00:19:22.670Z,0
2016-07-09T00:20:21.707Z,0
2016-07-09T00:21:21.679Z,0
2016-07-09T00:22:21.674Z,0
2016-07-09T00:23:24.299Z,0
2016-07-09T00:24:23.723Z,0
2016-07-09T00:25:24.608Z,0
2016-07-09T00:26:23.747Z,0
2016-07-09T00:27:21.812Z,0
2016-07-09T00:28:22.400Z,0
2016-07-09T00:29:21.874Z,0
2016-07-09T00:30:21.672Z,0
2016-07-09T00:31:21.669Z,0
2016-07-09T00:32:21.660Z,0
2016-07-09T00:33:21.659Z,0
2016-07-09T00:34:21.657Z,0
2016-07-09T00:35:21.643Z,0
2016-07-09T00:36:21.652Z,0
2016-07-09T00:37:21.656Z,0
2016-07-09T00:38:21.655Z,0
2016-07-09T00:39:21.654Z,0
2016-07-09T00:40:21.646Z,0
2016-07-09T00:41:21.641Z,0
2016-07-09T00:42:21.637Z,0
2016-07-09T00:43:21.646Z,0
2016-07-09T00:44:22.245Z,0
2016-07-09T00:45:21.640Z,0
2016-07-09T00:46:22.984Z,0
2016-07-09T00:47:22.087Z,0
2016-07-09T00:48:23.190Z,0
2016-07-09T00:49:21.842Z,0
2016-07-09T00:50:21.921Z,0
2016-07-09T00:51:21.624Z,0
2016-07-09T00:52:22.272Z,0
2016-07-09T00:53:21.623Z,0
2016-07-09T00:54:21.615Z,0
2016-07-09T00:57:36.967Z,0
2016-07-09T00:59:21.750Z,0
2016-07-09T01:00:21.610Z,0
2016-07-09T01:01:21.610Z,0
2016-07-09T01:02:23.111Z,0
2016-07-09T01:03:21.600Z,0
2016-07-09T01:04:21.596Z,0
2016-07-09T01:05:21.589Z,0
2016-07-09T01:06:21.587Z,0
2016-07-09T01:07:21.588Z,0
2016-07-09T01:08:21.591Z,0
2016-07-09T01:09:21.575Z,0
2016-07-09T01:10:21.572Z,0
2016-07-09T01:11:21.574Z,0
2016-07-09T01:12:22.178Z,0
2016-07-09T01:13:21.575Z,0
2016-07-09T01:14:21.577Z,0
2016-07-09T01:15:21.568Z,0
2016-07-09T01:16:21.558Z,0
2016-07-09T01:17:21.567Z,0
2016-07-09T01:18:21.551Z,0
2016-07-09T01:19:21.560Z,0
2016-07-09T01:20:21.552Z,0
2016-07-09T01:21:21.558Z,0
2016-07-09T01:22:21.545Z,0
2016-07-09T01:23:21.541Z,0
2016-07-09T01:24:21.550Z,0
2016-07-09T01:25:21.541Z,0
2016-07-09T01:26:21.536Z,0
2016-07-09T01:27:21.537Z,0
2016-07-09T01:28:21.537Z,0
2016-07-09T01:29:21.627Z,0
2016-07-09T01:30:21.535Z,0
2016-07-09T01:31:21.534Z,0
2016-07-09T01:32:24.041Z,0
2016-07-09T01:33:25.353Z,0
2016-07-09T01:34:23.223Z,0
2016-07-09T01:35:22.798Z,0
2016-07-09T01:36:22.108Z,0
2016-07-09T01:37:22.359Z,0
2016-07-09T01:38:22.294Z,0
2016-07-09T01:39:21.610Z,0
2016-07-09T01:40:21.508Z,0
2016-07-09T01:41:24.195Z,0
2016-07-09T01:43:24.346Z,0
2016-07-09T01:44:24.314Z,0
2016-07-09T01:45:23.091Z,0
2016-07-09T01:46:21.829Z,0
2016-07-09T01:47:22.212Z,0
2016-07-09T01:48:22.018Z,0
2016-07-09T01:49:22.087Z,0
2016-07-09T01:50:21.491Z,0
2016-07-09T01:51:21.495Z,0
2016-07-09T01:52:21.483Z,0
2016-07-09T01:53:21.481Z,0
2016-07-09T01:54:21.475Z,0
2016-07-09T01:55:21.470Z,0
2016-07-09T01:56:21.474Z,0
2016-07-09T01:57:21.479Z,0
2016-07-09T01:58:21.464Z,0
2016-07-09T01:59:21.473Z,0
2016-07-09T02:00:21.476Z,0
2016-07-09T02:01:21.464Z,0
2016-07-09T02:02:21.452Z,0
2016-07-09T02:03:21.462Z,0
2016-07-09T02:04:22.207Z,0
2016-07-09T02:05:22.508Z,0
2016-07-09T02:06:21.753Z,0
2016-07-09T02:07:22.849Z,0
2016-07-09T02:08:21.446Z,0
2016-07-09T02:09:21.802Z,0
2016-07-09T02:10:21.545Z,0
2016-07-09T02:11:21.439Z,0
2016-07-09T02:12:21.453Z,0
2016-07-09T02:13:22.491Z,0
2016-07-09T02:14:22.586Z,0
2016-07-09T02:15:21.884Z,0
2016-07-09T02:16:21.726Z,0
2016-07-09T02:17:21.962Z,0
2016-07-09T02:18:22.023Z,0
2016-07-09T02:19:22.023Z,0
2016-07-09T02:20:21.423Z,0
2016-07-09T02:21:21.410Z,0
2016-07-09T02:22:21.415Z,0
2016-07-09T02:23:21.409Z,0
2016-07-09T02:24:21.406Z,0
2016-07-09T02:25:21.410Z,0
2016-07-09T02:26:21.407Z,0
2016-07-09T02:27:21.406Z,0
2016-07-09T02:28:21.415Z,0
2016-07-09T02:29:21.505Z,0
2016-07-09T02:30:21.402Z,0
2016-07-09T02:31:21.384Z,0
2016-07-09T02:32:21.396Z,0
2016-07-09T02:33:21.391Z,0
2016-07-09T02:34:21.381Z,0
2016-07-09T02:35:21.385Z,0
2016-07-09T02:36:21.377Z,0
2016-07-09T02:37:21.398Z,0
2016-07-09T02:38:21.377Z,0
2016-07-09T02:39:21.377Z,0
2016-07-09T02:40:21.376Z,0
2016-07-09T02:41:21.370Z,0
2016-07-09T02:42:21.367Z,0
2016-07-09T02:43:21.378Z,0
2016-07-09T02:44:21.371Z,0
2016-07-09T02:45:21.969Z,0
2016-07-09T02:46:21.356Z,5
2016-07-09T02:47:21.356Z,5
2016-07-09T02:48:21.350Z,5
2016-07-09T02:49:21.355Z,5
2016-07-09T02:50:22.583Z,5
2016-07-09T02:51:23.029Z,5
2016-07-09T02:52:23.822Z,5
2016-07-09T02:53:24.417Z,5
2016-07-09T02:54:21.663Z,5
2016-07-09T02:55:21.346Z,5
2016-07-09T02:56:21.689Z,5
2016-07-09T02:57:21.771Z,5
2016-07-09T02:58:21.462Z,5
2016-07-09T02:59:21.334Z,5
2016-07-09T03:00:23.447Z,10
2016-07-09T03:01:22.875Z,10
2016-07-09T03:02:22.199Z,10
2016-07-09T03:03:22.184Z,10
2016-07-09T03:04:22.028Z,10
2016-07-09T03:05:21.928Z,10
2016-07-09T03:06:22.237Z,10
2016-07-09T03:07:21.307Z,15
2016-07-09T03:08:21.348Z,15
2016-07-09T03:09:21.305Z,15
2016-07-09T03:10:21.310Z,20
2016-07-09T03:11:21.310Z,20
2016-07-09T03:12:21.305Z,20
2016-07-09T03:13:21.306Z,25
2016-07-09T03:14:21.306Z,25
2016-07-09T03:15:21.302Z,30
2016-07-09T03:16:21.291Z,35
2016-07-09T03:17:21.293Z,35
2016-07-09T03:18:21.294Z,40
2016-07-09T03:19:21.288Z,45
2016-07-09T03:20:21.285Z,50
2016-07-09T03:21:21.289Z,55
2016-07-09T03:23:37.135Z,70
2016-07-09T03:24:36.333Z,80
2016-07-09T03:26:21.276Z,80
2016-07-09T03:27:36.229Z,80
2016-07-09T03:28:21.273Z,85
2016-07-09T03:29:21.373Z,80
2016-07-09T03:30:21.428Z,80
2016-07-09T03:31:36.169Z,80
2016-07-09T03:32:21.305Z,85
2016-07-09T03:33:22.323Z,95
2016-07-09T03:34:21.399Z,100
2016-07-09T03:35:22.155Z,95
2016-07-09T03:36:21.657Z,95
2016-07-09T03:37:21.246Z,90
2016-07-09T03:38:21.253Z,100
2016-07-09T03:39:21.260Z,100
2016-07-09T03:40:21.247Z,120
2016-07-09T03:41:21.242Z,120
2016-07-09T03:42:21.248Z,115
2016-07-09T03:43:21.247Z,110
2016-07-09T03:44:21.228Z,125
2016-07-09T03:45:21.238Z,170
2016-07-09T03:46:21.233Z,180
2016-07-09T03:47:21.242Z,180
2016-07-09T03:48:21.230Z,170
2016-07-09T03:49:21.246Z,170
2016-07-09T03:50:21.236Z,150
2016-07-09T03:51:21.231Z,120
2016-07-09T03:52:21.231Z,100
2016-07-09T03:53:21.229Z,70
2016-07-09T03:54:21.218Z,60
2016-07-09T03:55:21.216Z,60
2016-07-09T03:56:21.218Z,70
2016-07-09T03:57:21.215Z,65
2016-07-09T03:58:21.229Z,85
2016-07-09T03:59:21.218Z,105
2016-07-09T04:00:21.214Z,105
2016-07-09T04:01:21.836Z,95
2016-07-09T04:02:21.219Z,90
2016-07-09T04:03:21.835Z,95
2016-07-09T04:04:21.218Z,75
2016-07-09T04:05:21.210Z,55
2016-07-09T04:06:21.208Z,45
2016-07-09T04:07:21.223Z,30
2016-07-09T04:08:21.211Z,30
2016-07-09T04:09:24.107Z,45
2016-07-09T04:10:22.678Z,60
2016-07-09T04:11:22.442Z,70
2016-07-09T04:12:22.909Z,75
2016-07-09T04:13:21.221Z,70
2016-07-09T04:14:21.208Z,70
2016-07-09T04:15:21.765Z,65
2016-07-09T04:16:21.208Z,60
2016-07-09T04:17:21.806Z,55
2016-07-09T04:18:23.994Z,55
2016-07-09T04:19:22.849Z,55
2016-07-09T04:20:25.255Z,65
2016-07-09T04:21:23.986Z,65
2016-07-09T04:22:21.792Z,65
2016-07-09T04:23:22.074Z,65
2016-07-09T04:24:21.323Z,60
2016-07-09T04:25:21.203Z,55
2016-07-09T04:26:21.203Z,45
2016-07-09T04:27:21.807Z,50
2016-07-09T04:28:21.202Z,60
2016-07-09T04:29:21.245Z,50
2016-07-09T04:30:21.203Z,50
2016-07-09T04:31:21.190Z,50
2016-07-09T04:32:21.190Z,50
2016-07-09T04:33:21.190Z,65
2016-07-09T04:34:21.200Z,60
2016-07-09T04:35:21.182Z,65
2016-07-09T04:36:21.202Z,105
2016-07-09T04:37:21.184Z,110
2016-07-09T04:38:21.184Z,75
2016-07-09T04:39:21.196Z,40
2016-07-09T04:40:21.179Z,30
2016-07-09T04:41:22.091Z,60
2016-07-09T04:42:21.586Z,85
2016-07-09T04:43:22.090Z,75
2016-07-09T04:45:21.237Z,90
2016-07-09T04:46:21.174Z,75
2016-07-09T04:47:21.188Z,75
2016-07-09T04:48:21.183Z,80
2016-07-09T04:49:21.179Z,75
2016-07-09T04:50:22.725Z,60
2016-07-09T04:51:22.677Z,70
2016-07-09T04:52:36.429Z,85
2016-07-09T04:53:21.775Z,95
2016-07-09T04:54:21.567Z,110
2016-07-09T04:55:21.172Z,190
2016-07-09T04:56:21.869Z,225
2016-07-09T04:57:21.166Z,210
2016-07-09T04:58:21.167Z,180
2016-07-09T04:59:21.164Z,185
2016-07-09T05:00:21.188Z,215
2016-07-09T05:01:21.159Z,235
2016-07-09T05:02:21.180Z,235
2016-07-09T05:03:21.762Z,245
2016-07-09T05:04:21.157Z,240
2016-07-09T05:05:21.160Z,230
2016-07-09T05:06:21.149Z,220
2016-07-09T05:07:21.152Z,245
2016-07-09T05:08:21.772Z,260
2016-07-09T05:09:21.155Z,280
2016-07-09T05:10:21.160Z,290
2016-07-09T05:11:21.154Z,340
2016-07-09T05:12:21.152Z,350
2016-07-09T05:13:21.148Z,385
2016-07-09T05:14:21.152Z,550
2016-07-09T05:15:21.156Z,505
2016-07-09T05:16:21.139Z,550
2016-07-09T05:17:21.157Z,535
2016-07-09T05:18:21.154Z,655
2016-07-09T05:19:21.145Z,460
2016-07-09T05:20:21.148Z,450
2016-07-09T05:21:21.147Z,890
2016-07-09T05:22:21.153Z,945
2016-07-09T05:23:21.147Z,625
2016-07-09T05:24:21.154Z,690
2016-07-09T05:25:21.158Z,930
2016-07-09T05:26:21.164Z,520
2016-07-09T05:27:23.155Z,1080
2016-07-09T05:28:24.396Z,1055
2016-07-09T05:29:22.420Z,1045
2016-07-09T05:30:21.978Z,1080
2016-07-09T05:31:21.294Z,900
2016-07-09T05:32:21.501Z,495
2016-07-09T05:33:21.414Z,1365
2016-07-09T05:34:21.185Z,1290
2016-07-09T05:35:21.211Z,535
2016-07-09T05:36:23.613Z,1035
2016-07-09T05:37:25.016Z,465
2016-07-09T05:38:23.617Z,1470
2016-07-09T05:39:23.615Z,1345
2016-07-09T05:40:22.470Z,530
2016-07-09T05:41:21.229Z,1355
2016-07-09T05:42:21.468Z,775
2016-07-09T05:43:21.246Z,350
2016-07-09T05:44:21.855Z,350
2016-07-09T05:45:21.258Z,335
2016-07-09T05:46:21.285Z,405
2016-07-09T05:47:21.278Z,495
2016-07-09T05:48:21.279Z,580
2016-07-09T05:49:21.292Z,860
2016-07-09T05:50:21.294Z,525
2016-07-09T05:51:21.296Z,575
2016-07-09T05:52:21.327Z,650
2016-07-09T05:53:21.324Z,1255
2016-07-09T05:54:21.340Z,970
2016-07-09T05:55:21.330Z,580
2016-07-09T05:56:21.338Z,1735
2016-07-09T05:57:21.345Z,560
2016-07-09T05:58:21.354Z,1690
2016-07-09T05:59:23.255Z,625
2016-07-09T06:00:22.547Z,570
2016-07-09T06:01:36.342Z,845
2016-07-09T06:02:36.507Z,1355
2016-07-09T06:03:21.387Z,1270
2016-07-09T06:04:21.403Z,420
2016-07-09T06:05:21.407Z,335
2016-07-09T06:06:21.414Z,415
2016-07-09T06:07:21.428Z,445
2016-07-09T06:08:22.988Z,490
2016-07-09T06:09:22.737Z,445
2016-07-09T06:10:21.787Z,1425
2016-07-09T06:11:21.857Z,475
2016-07-09T06:12:36.930Z,395
2016-07-09T06:13:21.483Z,410
2016-07-09T06:14:21.487Z,535
2016-07-09T06:15:21.690Z,505
2016-07-09T06:16:21.497Z,380
2016-07-09T06:17:21.520Z,340
2016-07-09T06:18:21.521Z,400
2016-07-09T06:19:21.512Z,450
2016-07-09T06:20:21.526Z,360
2016-07-09T06:21:21.535Z,360
2016-07-09T06:22:21.549Z,455
2016-07-09T06:23:21.543Z,460
2016-07-09T06:24:21.556Z,490
2016-07-09T06:25:21.579Z,1790
2016-07-09T06:26:21.570Z,1805
2016-07-09T06:27:21.575Z,1865
2016-07-09T06:28:21.589Z,1895
2016-07-09T06:29:21.600Z,1970
2016-07-09T06:30:21.742Z,2025
2016-07-09T06:31:21.604Z,600
2016-07-09T06:32:21.606Z,1850
2016-07-09T06:33:21.624Z,1890
2016-07-09T06:34:21.631Z,1985
2016-07-09T06:35:21.648Z,2255
2016-07-09T06:36:21.653Z,2280
2016-07-09T06:37:21.660Z,700
2016-07-09T06:38:21.669Z,1090
2016-07-09T06:39:21.683Z,1105
2016-07-09T06:40:21.697Z,530
2016-07-09T06:41:21.703Z,760
2016-07-09T06:42:21.704Z,530
2016-07-09T06:43:21.719Z,760
2016-07-09T06:44:21.738Z,670
2016-07-09T06:45:24.467Z,710
2016-07-09T06:46:24.724Z,2235
2016-07-09T06:47:25.178Z,655
2016-07-09T06:48:22.412Z,630
2016-07-09T06:49:22.649Z,2180
2016-07-09T06:50:21.799Z,1405
2016-07-09T06:51:22.278Z,745
2016-07-09T06:52:22.151Z,595
2016-07-09T06:53:21.826Z,655
2016-07-09T06:54:21.834Z,395
2016-07-09T06:55:24.122Z,350
2016-07-09T06:56:23.239Z,315
2016-07-09T06:57:24.268Z,345
2016-07-09T06:58:21.872Z,310
2016-07-09T06:59:21.877Z,250
2016-07-09T07:00:22.387Z,250
2016-07-09T07:01:21.908Z,1765
2016-07-09T07:02:21.907Z,2155
2016-07-09T07:03:21.930Z,2125
2016-07-09T07:04:21.932Z,2095
2016-07-09T07:05:21.934Z,2180
2016-07-09T07:06:21.947Z,2260
2016-07-09T07:07:21.974Z,2330
2016-07-09T07:08:21.967Z,2355
2016-07-09T07:09:21.980Z,2280
2016-07-09T07:10:21.995Z,2355
2016-07-09T07:11:22.003Z,2375
2016-07-09T07:12:22.011Z,2440
2016-07-09T07:13:22.017Z,2055
2016-07-09T07:14:22.035Z,1745
2016-07-09T07:15:22.041Z,1290
2016-07-09T07:16:22.068Z,1295
2016-07-09T07:17:37.985Z,2470
2016-07-09T07:18:22.735Z,920
2016-07-09T07:19:38.210Z,535
2016-07-09T07:20:23.260Z,900
2016-07-09T07:21:23.130Z,445
2016-07-09T07:22:22.132Z,355
2016-07-09T07:23:22.151Z,370
2016-07-09T07:24:22.158Z,530
2016-07-09T07:25:22.171Z,2625
2016-07-09T07:26:38.002Z,550
2016-07-09T07:27:22.497Z,945
2016-07-09T07:28:23.914Z,290
2016-07-09T07:29:22.313Z,265
2016-07-09T07:30:22.285Z,285
2016-07-09T07:31:22.239Z,330
2016-07-09T07:32:22.347Z,385
2016-07-09T07:33:22.258Z,430
2016-07-09T07:34:22.276Z,465
2016-07-09T07:35:22.282Z,525
2016-07-09T07:36:22.294Z,555
2016-07-09T07:37:22.305Z,615
2016-07-09T07:38:22.311Z,2835
2016-07-09T07:39:22.314Z,2835
2016-07-09T07:40:22.323Z,940
2016-07-09T07:41:22.341Z,1065
2016-07-09T07:42:22.356Z,915
2016-07-09T07:43:22.349Z,790
2016-07-09T07:44:22.358Z,695
2016-07-09T07:45:22.370Z,975
2016-07-09T07:46:22.374Z,3220
2016-07-09T07:47:22.391Z,1465
2016-07-09T07:48:22.396Z,1365
2016-07-09T07:49:23.024Z,1040
2016-07-09T07:50:22.429Z,1470
2016-07-09T07:51:22.420Z,2075
2016-07-09T07:52:22.437Z,2190
2016-07-09T07:53:22.450Z,2155
2016-07-09T07:54:22.454Z,3385
2016-07-09T07:55:22.468Z,1980
2016-07-09T07:56:22.465Z,1410
2016-07-09T07:57:22.484Z,1155
2016-07-09T07:58:22.483Z,955
2016-07-09T07:59:22.505Z,875
2016-07-09T08:00:22.506Z,645
2016-07-09T08:01:22.524Z,515
2016-07-09T08:02:22.536Z,500
2016-07-09T08:03:22.553Z,615
2016-07-09T08:04:25.258Z,850
2016-07-09T08:05:24.851Z,1380
2016-07-09T08:06:26.347Z,1250
2016-07-09T08:07:24.330Z,1005
2016-07-09T08:08:24.110Z,910
2016-07-09T08:09:23.011Z,875
2016-07-09T08:10:22.619Z,925
2016-07-09T08:11:22.622Z,945
2016-07-09T08:12:22.633Z,780
2016-07-09T08:13:26.226Z,720
2016-07-09T08:14:24.968Z,715
2016-07-09T08:15:24.967Z,715
2016-07-09T08:16:23.354Z,690
2016-07-09T08:17:23.657Z,655
2016-07-09T08:18:23.028Z,585
2016-07-09T08:19:22.707Z,455
2016-07-09T08:20:22.703Z,390
2016-07-09T08:21:22.791Z,410
2016-07-09T08:22:22.732Z,420
2016-07-09T08:23:22.726Z,440
2016-07-09T08:24:22.736Z,495
2016-07-09T08:25:22.742Z,540
2016-07-09T08:26:22.745Z,565
2016-07-09T08:27:22.757Z,625
2016-07-09T08:28:22.761Z,685
2016-07-09T08:29:22.803Z,740
2016-07-09T08:30:22.884Z,795
2016-07-09T08:31:22.795Z,800
2016-07-09T08:32:22.791Z,790
2016-07-09T08:33:22.807Z,630
2016-07-09T08:34:22.817Z,495
2016-07-09T08:36:23.721Z,455
2016-07-09T08:37:23.887Z,480
2016-07-09T08:38:23.345Z,465
2016-07-09T08:40:22.949Z,385
2016-07-09T08:41:23.660Z,355
2016-07-09T08:42:22.867Z,315
2016-07-09T08:43:22.965Z,295
2016-07-09T08:44:22.886Z,305
2016-07-09T08:45:22.884Z,325
2016-07-09T08:46:24.582Z,340
2016-07-09T08:47:53.057Z,395
2016-07-09T08:48:23.702Z,430
2016-07-09T08:49:23.605Z,505
2016-07-09T08:50:23.521Z,565
2016-07-09T08:51:23.527Z,635
2016-07-09T08:52:22.919Z,685
2016-07-09T08:53:22.931Z,700
2016-07-09T08:54:22.919Z,715
2016-07-09T08:55:22.940Z,735
2016-07-09T08:56:22.935Z,750
2016-07-09T08:57:22.945Z,710
2016-07-09T08:58:22.964Z,635
2016-07-09T08:59:22.968Z,625
2016-07-09T09:00:22.964Z,505
2016-07-09T09:01:22.975Z,510
2016-07-09T09:02:22.971Z,590
2016-07-09T09:03:22.987Z,560
2016-07-09T09:04:22.986Z,625
2016-07-09T09:05:22.983Z,700
2016-07-09T09:06:22.988Z,760
2016-07-09T09:07:22.995Z,795
2016-07-09T09:08:23.004Z,780
2016-07-09T09:09:23.015Z,745
2016-07-09T09:10:23.006Z,685
2016-07-09T09:11:23.018Z,660
2016-07-09T09:12:23.022Z,645
2016-07-09T09:13:23.032Z,615
2016-07-09T09:14:23.023Z,550
2016-07-09T09:15:23.040Z,475
2016-07-09T09:16:23.054Z,470
2016-07-09T09:17:23.047Z,515
2016-07-09T09:18:23.048Z,580
2016-07-09T09:19:23.050Z,600
2016-07-09T09:20:23.073Z,645
2016-07-09T09:21:23.061Z,685
2016-07-09T09:22:25.179Z,660
2016-07-09T09:23:24.581Z,700
2016-07-09T09:24:27.006Z,785
2016-07-09T09:25:25.838Z,880
2016-07-09T09:26:23.760Z,950
2016-07-09T09:27:24.373Z,925
2016-07-09T09:28:23.277Z,870
2016-07-09T09:29:23.111Z,880
2016-07-09T09:30:23.115Z,735
2016-07-09T09:31:24.624Z,580
2016-07-09T09:32:26.122Z,545
2016-07-09T09:33:25.723Z,560
2016-07-09T09:34:25.119Z,555
2016-07-09T09:35:23.501Z,665
2016-07-09T09:36:24.344Z,775
2016-07-09T09:37:24.065Z,725
2016-07-09T09:38:23.160Z,615
2016-07-09T09:39:23.180Z,540
2016-07-09T09:40:23.178Z,460
2016-07-09T09:41:23.180Z,385
2016-07-09T09:42:23.180Z,385
2016-07-09T09:43:23.196Z,500
2016-07-09T09:44:23.193Z,670
2016-07-09T09:45:23.201Z,715
2016-07-09T09:46:23.204Z,770
2016-07-09T09:47:23.215Z,760
2016-07-09T09:48:23.221Z,560
2016-07-09T09:49:23.238Z,370
2016-07-09T09:50:23.250Z,240
2016-07-09T09:51:23.242Z,180
2016-07-09T09:52:23.251Z,165
2016-07-09T09:53:24.069Z,145
2016-07-09T09:54:24.413Z,125
2016-07-09T09:55:23.663Z,135
2016-07-09T09:56:39.379Z,160
2016-07-09T09:57:23.824Z,170
2016-07-09T09:58:23.673Z,195
2016-07-09T09:59:23.490Z,235
2016-07-09T10:00:23.289Z,255
2016-07-09T10:01:23.899Z,280
2016-07-09T10:02:23.295Z,305
2016-07-09T10:04:25.262Z,425
2016-07-09T10:05:24.039Z,500
2016-07-09T10:06:38.222Z,560
2016-07-09T10:07:38.726Z,635
2016-07-09T10:08:24.584Z,700
2016-07-09T10:09:23.573Z,700
2016-07-09T10:10:23.322Z,625
2016-07-09T10:11:23.336Z,640
2016-07-09T10:12:23.336Z,700
2016-07-09T10:13:23.350Z,760
2016-07-09T10:14:23.346Z,775
2016-07-09T10:15:23.348Z,750
2016-07-09T10:16:23.362Z,645
2016-07-09T10:17:23.363Z,525
2016-07-09T10:18:23.362Z,405
2016-07-09T10:19:23.376Z,325
2016-07-09T10:20:23.366Z,300
2016-07-09T10:21:23.383Z,350
2016-07-09T10:22:23.384Z,430
2016-07-09T10:23:23.388Z,550
2016-07-09T10:24:23.395Z,675
2016-07-09T10:25:23.392Z,730
2016-07-09T10:26:23.395Z,785
2016-07-09T10:27:23.401Z,755
2016-07-09T10:28:23.411Z,660
2016-07-09T10:29:23.416Z,620
2016-07-09T10:30:23.716Z,685
2016-07-09T10:31:23.423Z,815
2016-07-09T10:32:23.434Z,830
2016-07-09T10:33:23.447Z,755
2016-07-09T10:34:23.439Z,655
2016-07-09T10:35:23.443Z,550
2016-07-09T10:36:23.454Z,475
2016-07-09T10:37:23.449Z,460
2016-07-09T10:38:23.459Z,425
2016-07-09T10:39:23.458Z,430
2016-07-09T10:40:28.639Z,445
2016-07-09T10:41:26.395Z,435
2016-07-09T10:42:24.510Z,375
2016-07-09T10:43:24.599Z,310
2016-07-09T10:44:24.308Z,265
2016-07-09T10:45:23.498Z,235
2016-07-09T10:46:23.502Z,210
2016-07-09T10:47:23.507Z,195
2016-07-09T10:48:23.640Z,205
2016-07-09T10:49:25.753Z,215
2016-07-09T10:51:26.581Z,280
2016-07-09T10:52:27.003Z,325
2016-07-09T10:53:23.895Z,370
2016-07-09T10:54:24.943Z,425
2016-07-09T10:55:23.540Z,485
2016-07-09T10:56:23.541Z,525
2016-07-09T10:57:23.552Z,565
2016-07-09T10:58:23.551Z,610
2016-07-09T10:59:23.563Z,655
2016-07-09T11:00:23.571Z,675
2016-07-09T11:01:23.568Z,655
2016-07-09T11:02:23.565Z,670
2016-07-09T11:03:23.566Z,790
2016-07-09T11:04:23.584Z,860
2016-07-09T11:05:23.579Z,840
2016-07-09T11:06:23.584Z,750
2016-07-09T11:07:23.591Z,650
2016-07-09T11:08:23.584Z,560
2016-07-09T11:09:23.601Z,465
2016-07-09T11:10:23.610Z,390
2016-07-09T11:11:23.609Z,330
2016-07-09T11:12:25.218Z,280
2016-07-09T11:13:24.978Z,225
2016-07-09T11:14:23.963Z,200
2016-07-09T11:15:24.080Z,195
2016-07-09T11:16:25.032Z,185
2016-07-09T11:17:23.633Z,190
2016-07-09T11:18:23.642Z,200
2016-07-09T11:19:23.645Z,215
2016-07-09T11:20:23.674Z,240
2016-07-09T11:21:39.864Z,260
2016-07-09T11:22:23.708Z,275
2016-07-09T11:23:24.572Z,300
2016-07-09T11:24:24.065Z,295
2016-07-09T11:26:23.975Z,290
2016-07-09T11:27:23.729Z,355
2016-07-09T11:28:23.668Z,470
2016-07-09T11:29:23.679Z,600
2016-07-09T11:30:23.692Z,700
2016-07-09T11:31:23.696Z,750
2016-07-09T11:32:23.686Z,760
2016-07-09T11:33:23.698Z,745
2016-07-09T11:34:23.704Z,715
2016-07-09T11:35:23.707Z,665
2016-07-09T11:36:23.708Z,580
2016-07-09T11:37:23.722Z,535
2016-07-09T11:38:23.717Z,550
2016-07-09T11:39:23.714Z,590
2016-07-09T11:40:23.729Z,655
2016-07-09T11:41:23.724Z,705
2016-07-09T11:42:23.739Z,760
2016-07-09T11:43:23.740Z,790
2016-07-09T11:44:23.750Z,780
2016-07-09T11:45:23.758Z,750
2016-07-09T11:46:23.744Z,735
2016-07-09T11:47:23.771Z,720
2016-07-09T11:48:23.758Z,715
2016-07-09T11:49:23.779Z,730
2016-07-09T11:50:23.773Z,745
2016-07-09T11:51:23.779Z,710
2016-07-09T11:52:23.785Z,685
2016-07-09T11:53:23.784Z,670
2016-07-09T11:54:23.791Z,625
2016-07-09T11:55:23.792Z,575
2016-07-09T11:56:23.802Z,565
2016-07-09T11:57:23.802Z,565
2016-07-09T11:59:27.330Z,670
2016-07-09T12:00:28.474Z,725
2016-07-09T12:01:25.955Z,735
2016-07-09T12:02:26.704Z,695
2016-07-09T12:03:25.970Z,645
2016-07-09T12:04:24.390Z,605
2016-07-09T12:05:23.865Z,565
2016-07-09T12:06:23.865Z,560
2016-07-09T12:07:23.882Z,600
2016-07-09T12:10:25.175Z,805
2016-07-09T12:11:26.301Z,820
2016-07-09T12:12:26.048Z,830
2016-07-09T12:13:24.912Z,845
2016-07-09T12:14:23.914Z,840
2016-07-09T12:15:23.908Z,815
2016-07-09T12:16:23.929Z,760
2016-07-09T12:17:23.933Z,740
2016-07-09T12:18:23.939Z,795
2016-07-09T12:19:23.944Z,810
2016-07-09T12:20:23.949Z,795
2016-07-09T12:21:23.953Z,795
2016-07-09T12:22:23.970Z,810
2016-07-09T12:23:23.976Z,800
2016-07-09T12:24:23.977Z,780
2016-07-09T12:25:24.011Z,780
2016-07-09T12:26:23.991Z,805
2016-07-09T12:27:23.998Z,825
2016-07-09T12:28:24.017Z,845
2016-07-09T12:29:24.017Z,870
2016-07-09T12:31:25.283Z,875
2016-07-09T12:32:24.336Z,860
2016-07-09T12:33:24.744Z,840
2016-07-09T12:34:25.115Z,835
2016-07-09T12:35:24.203Z,805
2016-07-09T12:36:24.673Z,745
2016-07-09T12:37:24.477Z,700
2016-07-09T12:38:24.072Z,700
2016-07-09T12:39:38.993Z,680
2016-07-09T12:40:24.696Z,650
2016-07-09T12:41:25.053Z,670
2016-07-09T12:42:25.567Z,770
2016-07-09T12:43:39.586Z,795
2016-07-09T12:44:24.680Z,775
2016-07-09T12:45:24.744Z,765
2016-07-09T12:46:24.150Z,770
2016-07-09T12:47:24.155Z,740
2016-07-09T12:48:24.762Z,730
2016-07-09T12:49:24.177Z,685
2016-07-09T12:50:24.180Z,690
2016-07-09T12:51:24.178Z,710
2016-07-09T12:52:24.188Z,710
2016-07-09T12:53:24.202Z,705
2016-07-09T12:54:24.210Z,725
2016-07-09T12:55:24.212Z,755
2016-07-09T12:56:24.827Z,785
2016-07-09T12:57:24.246Z,775
2016-07-09T12:58:24.252Z,740
2016-07-09T12:59:24.249Z,730
2016-07-09T13:00:24.258Z,740
2016-07-09T13:01:24.266Z,760
2016-07-09T13:02:24.276Z,790
2016-07-09T13:03:24.291Z,785
2016-07-09T13:04:24.289Z,760
2016-07-09T13:05:24.297Z,755
2016-07-09T13:06:24.296Z,755
2016-07-09T13:07:24.315Z,735
2016-07-09T13:08:24.322Z,685
2016-07-09T13:09:24.330Z,610
2016-07-09T13:10:24.328Z,550
2016-07-09T13:11:24.349Z,515
2016-07-09T13:12:24.360Z,500
2016-07-09T13:13:24.364Z,495
2016-07-09T13:14:24.367Z,495
2016-07-09T13:15:24.380Z,515
2016-07-09T13:16:24.380Z,575
2016-07-09T13:17:26.417Z,655
2016-07-09T13:19:25.296Z,710
2016-07-09T13:20:25.906Z,725
2016-07-09T13:21:24.426Z,725
2016-07-09T13:22:24.429Z,695
2016-07-09T13:23:24.913Z,680
2016-07-09T13:24:24.453Z,670
2016-07-09T13:25:24.460Z,655
2016-07-09T13:26:26.352Z,665
2016-07-09T13:28:26.274Z,630
2016-07-09T13:29:25.437Z,600
2016-07-09T13:30:24.500Z,555
2016-07-09T13:31:24.498Z,515
2016-07-09T13:32:24.494Z,485
2016-07-09T13:33:24.529Z,460
2016-07-09T13:34:24.515Z,460
2016-07-09T13:35:24.524Z,470
2016-07-09T13:36:24.538Z,460
2016-07-09T13:37:24.543Z,435
2016-07-09T13:38:24.548Z,410
2016-07-09T13:39:24.551Z,380
2016-07-09T13:40:24.573Z,355
2016-07-09T13:41:24.568Z,330
2016-07-09T13:42:24.569Z,305
2016-07-09T13:43:24.576Z,290
2016-07-09T13:44:24.591Z,290
2016-07-09T13:45:24.599Z,305
2016-07-09T13:46:24.603Z,320
2016-07-09T13:47:24.604Z,335
2016-07-09T13:48:24.613Z,350
2016-07-09T13:49:24.923Z,365
2016-07-09T13:50:24.732Z,400
2016-07-09T13:51:54.554Z,495
2016-07-09T13:52:25.768Z,530
2016-07-09T13:53:25.346Z,575
2016-07-09T13:54:24.658Z,595
2016-07-09T13:55:24.812Z,605
2016-07-09T13:56:24.761Z,590
2016-07-09T13:57:24.676Z,575
2016-07-09T13:58:26.040Z,580
2016-07-09T13:59:25.588Z,580
2016-07-09T14:00:26.236Z,600
2016-07-09T14:01:26.151Z,620
2016-07-09T14:02:25.302Z,630
2016-07-09T14:03:25.360Z,615
2016-07-09T14:04:24.715Z,590
2016-07-09T14:05:24.718Z,565
2016-07-09T14:06:24.722Z,545
2016-07-09T14:07:24.741Z,525
2016-07-09T14:08:24.738Z,510
2016-07-09T14:09:24.745Z,475
2016-07-09T14:10:24.752Z,435
2016-07-09T14:11:24.757Z,395
2016-07-09T14:12:24.757Z,390
2016-07-09T14:13:24.778Z,375
2016-07-09T14:14:24.773Z,340
2016-07-09T14:15:24.775Z,315
2016-07-09T14:16:24.789Z,305
2016-07-09T14:17:24.789Z,310